sensor_id;sensor_type;location;lat;lon;timestamp;pressure;altitude;pressure_sealevel;temperature;humidity
33265;BME280;31404;53.974;-1.086;2023-05-11T00:00:40;101207.59;;;14.76;73.65
33265;BME280;31404;53.974;-1.086;2023-05-11T00:05:36;101209.92;;;14.17;75.93
33265;BME280;31404;53.974;-1.086;2023-05-11T00:10:40;101206.31;;;14.12;77.15
33265;BME280;31404;53.974;-1.086;2023-05-11T00:15:39;101209.82;;;14.90;74.34
33265;BME280;31404;53.974;-1.086;2023-05-11T00:20:37;101215.76;;;13.44;79.36
33265;BME280;31404;53.974;-1.086;2023-05-11T00:25:40;101213.27;;;13.52;78.81
33265;BME280;31404;53.974;-1.086;2023-05-11T00:30:40;101211.47;;;14.68;75.06
33265;BME280;31404;53.974;-1.086;2023-05-11T00:35:40;101220.08;;;15.05;73.82
33265;BME280;31404;53.974;-1.086;2023-05-11T00:40:42;101222.64;;;15.43;72.06
33265;BME280;31404;53.974;-1.086;2023-05-11T00:45:39;101218.49;;;14.91;72.60
33265;BME280;31404;53.974;-1.086;2023-05-11T00:50:40;101220.98;;;14.43;75.15
33265;BME280;31404;53.974;-1.086;2023-05-11T00:55:40;101219.01;;;14.86;73.46
33265;BME280;31404;53.974;-1.086;2023-05-11T01:00:40;101224.46;;;14.29;75.87
33265;BME280;31404;53.974;-1.086;2023-05-11T01:05:43;101226.67;;;13.88;76.92
33265;BME280;31404;53.974;-1.086;2023-05-11T01:10:43;101234.28;;;13.50;79.68
33265;BME280;31404;53.974;-1.086;2023-05-11T01:20:43;101239.28;;;12.75;82.12
33265;BME280;31404;53.974;-1.086;2023-05-11T01:30:43;101245.08;;;13.66;79.29
33265;BME280;31404;53.974;-1.086;2023-05-11T01:35:44;101242.55;;;13.63;79.39
33265;BME280;31404;53.974;-1.086;2023-05-11T01:40:41;101245.62;;;13.35;80.65
33265;BME280;31404;53.974;-1.086;2023-05-11T01:45:42;101243.35;;;14.37;77.50
33265;BME280;31404;53.974;-1.086;2023-05-11T01:50:40;101250.43;;;13.71;79.13
33265;BME280;31404;53.974;-1.086;2023-05-11T01:55:41;101255.18;;;13.80;79.49
33265;BME280;31404;53.974;-1.086;2023-05-11T02:00:41;101258.08;;;14.05;78.50
33265;BME280;31404;53.974;-1.086;2023-05-11T02:05:41;101264.41;;;13.66;79.15
33265;BME280;31404;53.974;-1.086;2023-05-11T02:10:39;101262.97;;;13.89;78.51
33265;BME280;31404;53.974;-1.086;2023-05-11T02:15:41;101266.41;;;13.36;81.28
33265;BME280;31404;53.974;-1.086;2023-05-11T02:25:40;101267.32;;;13.77;79.69
33265;BME280;31404;53.974;-1.086;2023-05-11T02:35:42;101275.62;;;13.50;79.33
33265;BME280;31404;53.974;-1.086;2023-05-11T02:45:35;101285.61;;;13.64;80.32
33265;BME280;31404;53.974;-1.086;2023-05-11T02:50:42;101287.19;;;13.46;80.19
33265;BME280;31404;53.974;-1.086;2023-05-11T02:55:36;101291.63;;;13.88;79.48
33265;BME280;31404;53.974;-1.086;2023-05-11T03:00:39;101292.78;;;14.85;76.12
33265;BME280;31404;53.974;-1.086;2023-05-11T03:05:41;101295.08;;;15.22;74.83
33265;BME280;31404;53.974;-1.086;2023-05-11T03:10:41;101298.40;;;13.86;78.42
33265;BME280;31404;53.974;-1.086;2023-05-11T03:15:40;101294.81;;;15.34;74.04
33265;BME280;31404;53.974;-1.086;2023-05-11T03:20:40;101292.65;;;15.21;74.82
33265;BME280;31404;53.974;-1.086;2023-05-11T03:25:40;101296.66;;;14.72;75.91
33265;BME280;31404;53.974;-1.086;2023-05-11T03:30:42;101298.28;;;14.76;75.10
33265;BME280;31404;53.974;-1.086;2023-05-11T03:35:41;101297.09;;;14.54;75.79
33265;BME280;31404;53.974;-1.086;2023-05-11T03:40:41;101302.61;;;13.88;78.87
33265;BME280;31404;53.974;-1.086;2023-05-11T03:45:37;101301.39;;;14.32;78.03
33265;BME280;31404;53.974;-1.086;2023-05-11T03:50:41;101302.03;;;13.29;82.22
33265;BME280;31404;53.974;-1.086;2023-05-11T03:55:40;101303.94;;;13.48;81.08
33265;BME280;31404;53.974;-1.086;2023-05-11T04:00:40;101305.68;;;13.07;83.36
33265;BME280;31404;53.974;-1.086;2023-05-11T04:05:40;101308.85;;;12.96;85.38
33265;BME280;31404;53.974;-1.086;2023-05-11T04:10:40;101307.26;;;13.23;83.05
33265;BME280;31404;53.974;-1.086;2023-05-11T04:15:40;101308.38;;;14.02;80.20
33265;BME280;31404;53.974;-1.086;2023-05-11T04:20:39;101309.39;;;13.52;81.96
33265;BME280;31404;53.974;-1.086;2023-05-11T04:25:40;101309.08;;;14.09;79.89
33265;BME280;31404;53.974;-1.086;2023-05-11T04:30:40;101309.70;;;14.27;79.74
33265;BME280;31404;53.974;-1.086;2023-05-11T04:35:39;101317.63;;;14.10;79.52
33265;BME280;31404;53.974;-1.086;2023-05-11T04:40:35;101323.41;;;13.71;80.81
33265;BME280;31404;53.974;-1.086;2023-05-11T04:45:40;101330.02;;;12.89;85.38
33265;BME280;31404;53.974;-1.086;2023-05-11T04:50:49;101334.97;;;13.74;82.53
33265;BME280;31404;53.974;-1.086;2023-05-11T04:55:40;101339.78;;;14.07;80.62
33265;BME280;31404;53.974;-1.086;2023-05-11T05:00:40;101341.90;;;13.55;83.32
33265;BME280;31404;53.974;-1.086;2023-05-11T05:05:34;101348.80;;;12.47;87.19
33265;BME280;31404;53.974;-1.086;2023-05-11T05:10:34;101349.99;;;13.43;85.03
33265;BME280;31404;53.974;-1.086;2023-05-11T05:15:42;101356.54;;;13.39;84.00
33265;BME280;31404;53.974;-1.086;2023-05-11T05:20:39;101360.86;;;13.12;84.88
33265;BME280;31404;53.974;-1.086;2023-05-11T05:25:42;101368.54;;;12.82;86.90
33265;BME280;31404;53.974;-1.086;2023-05-11T05:30:39;101373.94;;;12.28;89.20
33265;BME280;31404;53.974;-1.086;2023-05-11T05:35:40;101372.06;;;12.97;87.48
33265;BME280;31404;53.974;-1.086;2023-05-11T05:40:40;101379.63;;;12.72;88.61
33265;BME280;31404;53.974;-1.086;2023-05-11T05:45:40;101378.85;;;13.45;85.13
33265;BME280;31404;53.974;-1.086;2023-05-11T05:50:40;101386.33;;;14.00;82.54
33265;BME280;31404;53.974;-1.086;2023-05-11T05:55:40;101392.86;;;12.99;85.66
33265;BME280;31404;53.974;-1.086;2023-05-11T06:00:39;101390.96;;;13.12;86.04
33265;BME280;31404;53.974;-1.086;2023-05-11T06:05:41;101393.03;;;13.19;86.37
33265;BME280;31404;53.974;-1.086;2023-05-11T06:10:40;101396.98;;;13.44;83.66
33265;BME280;31404;53.974;-1.086;2023-05-11T06:15:40;101403.80;;;13.90;81.48
33265;BME280;31404;53.974;-1.086;2023-05-11T06:20:42;101408.80;;;13.45;83.00
33265;BME280;31404;53.974;-1.086;2023-05-11T06:25:40;101419.96;;;13.14;84.77
33265;BME280;31404;53.974;-1.086;2023-05-11T06:30:40;101420.95;;;13.26;84.23
33265;BME280;31404;53.974;-1.086;2023-05-11T06:35:39;101419.01;;;13.43;85.33
33265;BME280;31404;53.974;-1.086;2023-05-11T06:40:40;101421.54;;;13.11;85.42
33265;BME280;31404;53.974;-1.086;2023-05-11T06:45:40;101422.15;;;13.43;85.48
33265;BME280;31404;53.974;-1.086;2023-05-11T06:50:40;101428.72;;;13.56;86.11
33265;BME280;31404;53.974;-1.086;2023-05-11T06:55:35;101433.23;;;13.45;84.76
33265;BME280;31404;53.974;-1.086;2023-05-11T07:00:39;101434.39;;;13.48;82.59
33265;BME280;31404;53.974;-1.086;2023-05-11T07:05:37;101433.52;;;13.57;80.67
33265;BME280;31404;53.974;-1.086;2023-05-11T07:10:39;101433.58;;;13.91;81.50
33265;BME280;31404;53.974;-1.086;2023-05-11T07:15:40;101433.69;;;13.38;83.08
33265;BME280;31404;53.974;-1.086;2023-05-11T07:20:36;101432.42;;;13.66;80.74
33265;BME280;31404;53.974;-1.086;2023-05-11T07:25:40;101433.66;;;14.45;80.94
33265;BME280;31404;53.974;-1.086;2023-05-11T07:30:38;101441.22;;;13.68;83.57
33265;BME280;31404;53.974;-1.086;2023-05-11T07:35:39;101446.40;;;13.71;82.74
33265;BME280;31404;53.974;-1.086;2023-05-11T07:40:40;101444.16;;;14.30;80.14
33265;BME280;31404;53.974;-1.086;2023-05-11T07:45:39;101450.46;;;13.41;83.34
33265;BME280;31404;53.974;-1.086;2023-05-11T07:50:39;101451.87;;;14.39;80.04
33265;BME280;31404;53.974;-1.086;2023-05-11T07:55:38;101456.54;;;14.87;75.56
33265;BME280;31404;53.974;-1.086;2023-05-11T08:00:38;101456.26;;;15.89;73.26
33265;BME280;31404;53.974;-1.086;2023-05-11T08:05:39;101464.43;;;15.10;73.66
33265;BME280;31404;53.974;-1.086;2023-05-11T08:10:38;101468.52;;;15.03;74.92
33265;BME280;31404;53.974;-1.086;2023-05-11T08:15:39;101470.92;;;16.29;72.58
33265;BME280;31404;53.974;-1.086;2023-05-11T08:20:38;101478.13;;;14.98;75.89
33265;BME280;31404;53.974;-1.086;2023-05-11T08:25:39;101482.99;;;14.92;76.47
33265;BME280;31404;53.974;-1.086;2023-05-11T08:30:39;101482.81;;;14.51;77.38
33265;BME280;31404;53.974;-1.086;2023-05-11T08:35:40;101481.99;;;13.93;78.23
33265;BME280;31404;53.974;-1.086;2023-05-11T08:40:40;101478.59;;;15.20;73.70
33265;BME280;31404;53.974;-1.086;2023-05-11T08:45:41;101489.40;;;13.96;78.38
33265;BME280;31404;53.974;-1.086;2023-05-11T08:50:39;101482.30;;;15.54;71.79
33265;BME280;31404;53.974;-1.086;2023-05-11T08:55:46;101482.75;;;15.34;73.80
33265;BME280;31404;53.974;-1.086;2023-05-11T09:01:04;101485.48;;;15.43;72.15
33265;BME280;31404;53.974;-1.086;2023-05-11T09:05:46;101489.18;;;14.74;73.89
33265;BME280;31404;53.974;-1.086;2023-05-11T09:10:44;101488.82;;;15.58;71.13
33265;BME280;31404;53.974;-1.086;2023-05-11T09:15:44;101488.50;;;15.32;70.54
33265;BME280;31404;53.974;-1.086;2023-05-11T09:25:44;101489.22;;;17.28;66.26
33265;BME280;31404;53.974;-1.086;2023-05-11T09:30:50;101488.88;;;15.52;69.53
33265;BME280;31404;53.974;-1.086;2023-05-11T09:40:49;101494.53;;;17.02;65.78
33265;BME280;31404;53.974;-1.086;2023-05-11T09:45:41;101497.40;;;15.53;70.86
33265;BME280;31404;53.974;-1.086;2023-05-11T09:50:38;101500.69;;;15.04;73.86
33265;BME280;31404;53.974;-1.086;2023-05-11T09:55:34;101499.02;;;16.28;69.72
33265;BME280;31404;53.974;-1.086;2023-05-11T10:05:38;101505.82;;;16.20;71.13
33265;BME280;31404;53.974;-1.086;2023-05-11T10:10:40;101508.05;;;16.00;73.73
33265;BME280;31404;53.974;-1.086;2023-05-11T10:15:37;101514.31;;;16.45;71.78
33265;BME280;31404;53.974;-1.086;2023-05-11T10:20:39;101517.25;;;17.46;69.50
33265;BME280;31404;53.974;-1.086;2023-05-11T10:25:40;101524.54;;;17.13;72.56
33265;BME280;31404;53.974;-1.086;2023-05-11T10:30:35;101525.50;;;15.72;78.82
33265;BME280;31404;53.974;-1.086;2023-05-11T10:35:40;101530.58;;;16.35;79.19
33265;BME280;31404;53.974;-1.086;2023-05-11T10:40:42;101533.90;;;15.02;82.35
33265;BME280;31404;53.974;-1.086;2023-05-11T11:05:35;101528.97;;;15.80;82.56
33265;BME280;31404;53.974;-1.086;2023-05-11T11:10:40;101528.20;;;16.16;79.27
33265;BME280;31404;53.974;-1.086;2023-05-11T11:30:38;101531.32;;;16.90;77.94
33265;BME280;31404;53.974;-1.086;2023-05-11T11:40:42;101537.28;;;17.19;76.65
33265;BME280;31404;53.974;-1.086;2023-05-11T11:45:36;101533.62;;;17.83;74.19
33265;BME280;31404;53.974;-1.086;2023-05-11T11:50:41;101534.64;;;16.86;75.98
33265;BME280;31404;53.974;-1.086;2023-05-11T12:00:39;101535.25;;;15.91;78.44
33265;BME280;31404;53.974;-1.086;2023-05-11T12:05:40;101535.00;;;15.28;82.14
33265;BME280;31404;53.974;-1.086;2023-05-11T12:10:39;101535.18;;;14.68;84.56
33265;BME280;31404;53.974;-1.086;2023-05-11T12:15:39;101539.05;;;13.57;89.52
33265;BME280;31404;53.974;-1.086;2023-05-11T12:20:39;101536.68;;;14.79;86.24
33265;BME280;31404;53.974;-1.086;2023-05-11T12:25:39;101539.64;;;15.32;77.73
33265;BME280;31404;53.974;-1.086;2023-05-11T12:30:39;101547.93;;;13.91;85.09
33265;BME280;31404;53.974;-1.086;2023-05-11T12:35:39;101554.13;;;15.55;84.49
33265;BME280;31404;53.974;-1.086;2023-05-11T12:40:39;101553.72;;;15.67;85.42
33265;BME280;31404;53.974;-1.086;2023-05-11T12:45:38;101555.77;;;15.31;84.92
33265;BME280;31404;53.974;-1.086;2023-05-11T12:50:39;101560.91;;;12.89;92.92
33265;BME280;31404;53.974;-1.086;2023-05-11T12:55:38;101569.18;;;12.79;97.79
33265;BME280;31404;53.974;-1.086;2023-05-11T13:05:35;101579.68;;;12.10;100.00
33265;BME280;31404;53.974;-1.086;2023-05-11T13:10:35;101583.91;;;11.80;100.00
33265;BME280;31404;53.974;-1.086;2023-05-11T13:20:38;101611.28;;;12.24;99.94
33265;BME280;31404;53.974;-1.086;2023-05-11T13:30:34;101640.65;;;13.77;91.56
33265;BME280;31404;53.974;-1.086;2023-05-11T13:35:39;101657.13;;;13.88;88.57
33265;BME280;31404;53.974;-1.086;2023-05-11T13:40:38;101652.21;;;14.69;84.25
33265;BME280;31404;53.974;-1.086;2023-05-11T13:45:34;101661.62;;;12.83;95.24
33265;BME280;31404;53.974;-1.086;2023-05-11T13:50:39;101664.70;;;13.54;91.56
33265;BME280;31404;53.974;-1.086;2023-05-11T13:55:39;101671.71;;;14.54;91.96
33265;BME280;31404;53.974;-1.086;2023-05-11T14:00:38;101676.11;;;13.95;94.85
33265;BME280;31404;53.974;-1.086;2023-05-11T14:05:38;101676.61;;;14.59;91.08
33265;BME280;31404;53.974;-1.086;2023-05-11T14:10:39;101673.61;;;13.31;97.95
33265;BME280;31404;53.974;-1.086;2023-05-11T14:15:44;101678.60;;;12.61;99.52
33265;BME280;31404;53.974;-1.086;2023-05-11T14:20:38;101677.71;;;13.60;94.64
33265;BME280;31404;53.974;-1.086;2023-05-11T14:25:38;101674.10;;;14.32;91.94
33265;BME280;31404;53.974;-1.086;2023-05-11T14:30:34;101675.88;;;15.92;85.37
33265;BME280;31404;53.974;-1.086;2023-05-11T14:35:38;101673.65;;;15.95;83.72
33265;BME280;31404;53.974;-1.086;2023-05-11T14:40:34;101674.83;;;15.32;86.72
33265;BME280;31404;53.974;-1.086;2023-05-11T14:45:39;101680.09;;;15.29;88.35
33265;BME280;31404;53.974;-1.086;2023-05-11T14:50:40;101676.57;;;16.34;84.26
33265;BME280;31404;53.974;-1.086;2023-05-11T14:55:39;101680.10;;;15.19;86.44
33265;BME280;31404;53.974;-1.086;2023-05-11T15:00:36;101679.48;;;15.78;81.47
33265;BME280;31404;53.974;-1.086;2023-05-11T15:05:38;101677.16;;;16.75;79.55
33265;BME280;31404;53.974;-1.086;2023-05-11T15:10:39;101683.05;;;16.06;82.13
33265;BME280;31404;53.974;-1.086;2023-05-11T15:15:39;101688.79;;;16.08;84.68
33265;BME280;31404;53.974;-1.086;2023-05-11T15:20:38;101701.53;;;14.67;89.38
33265;BME280;31404;53.974;-1.086;2023-05-11T15:25:39;101700.78;;;14.43;93.26
33265;BME280;31404;53.974;-1.086;2023-05-11T15:30:40;101712.56;;;14.30;94.42
33265;BME280;31404;53.974;-1.086;2023-05-11T15:35:39;101717.53;;;14.86;94.87
33265;BME280;31404;53.974;-1.086;2023-05-11T15:40:38;101721.24;;;14.47;96.29
33265;BME280;31404;53.974;-1.086;2023-05-11T15:45:40;101731.22;;;13.41;100.00
33265;BME280;31404;53.974;-1.086;2023-05-11T15:50:38;101735.50;;;13.62;98.87
33265;BME280;31404;53.974;-1.086;2023-05-11T15:55:41;101733.19;;;13.92;99.25
33265;BME280;31404;53.974;-1.086;2023-05-11T16:00:39;101735.08;;;12.21;100.00
33265;BME280;31404;53.974;-1.086;2023-05-11T16:05:35;101735.72;;;13.66;99.32
33265;BME280;31404;53.974;-1.086;2023-05-11T16:10:35;101732.94;;;13.10;99.20
33265;BME280;31404;53.974;-1.086;2023-05-11T16:15:38;101736.07;;;12.60;100.00
33265;BME280;31404;53.974;-1.086;2023-05-11T16:20:39;101740.71;;;14.09;95.79
33265;BME280;31404;53.974;-1.086;2023-05-11T16:25:38;101743.49;;;14.33;91.29
33265;BME280;31404;53.974;-1.086;2023-05-11T16:30:34;101741.97;;;13.09;94.97
33265;BME280;31404;53.974;-1.086;2023-05-11T16:35:39;101749.13;;;13.72;93.57
33265;BME280;31404;53.974;-1.086;2023-05-11T16:40:38;101748.95;;;13.14;93.33
33265;BME280;31404;53.974;-1.086;2023-05-11T16:45:39;101751.07;;;14.45;87.52
33265;BME280;31404;53.974;-1.086;2023-05-11T16:50:40;101752.49;;;13.93;85.88
33265;BME280;31404;53.974;-1.086;2023-05-11T16:55:40;101760.51;;;13.88;87.47
33265;BME280;31404;53.974;-1.086;2023-05-11T17:00:39;101761.33;;;13.40;89.59
33265;BME280;31404;53.974;-1.086;2023-05-11T17:05:38;101766.64;;;13.82;88.49
33265;BME280;31404;53.974;-1.086;2023-05-11T17:10:39;101768.22;;;13.79;90.75
33265;BME280;31404;53.974;-1.086;2023-05-11T17:15:40;101777.84;;;12.78;94.19
33265;BME280;31404;53.974;-1.086;2023-05-11T17:20:37;101780.74;;;13.84;85.17
33265;BME280;31404;53.974;-1.086;2023-05-11T17:25:39;101787.83;;;14.24;84.99
33265;BME280;31404;53.974;-1.086;2023-05-11T17:30:39;101797.61;;;13.90;88.59
33265;BME280;31404;53.974;-1.086;2023-05-11T17:35:39;101804.06;;;15.13;84.82
33265;BME280;31404;53.974;-1.086;2023-05-11T17:40:38;101805.56;;;13.07;91.01
33265;BME280;31404;53.974;-1.086;2023-05-11T17:45:34;101807.33;;;14.66;84.04
33265;BME280;31404;53.974;-1.086;2023-05-11T17:50:38;101806.13;;;14.67;83.59
33265;BME280;31404;53.974;-1.086;2023-05-11T17:55:40;101813.85;;;14.89;82.02
33265;BME280;31404;53.974;-1.086;2023-05-11T18:00:39;101813.41;;;13.98;86.69
33265;BME280;31404;53.974;-1.086;2023-05-11T18:05:38;101817.77;;;15.16;82.90
33265;BME280;31404;53.974;-1.086;2023-05-11T18:10:35;101825.22;;;14.62;87.16
33265;BME280;31404;53.974;-1.086;2023-05-11T18:15:40;101833.05;;;14.73;83.01
33265;BME280;31404;53.974;-1.086;2023-05-11T18:20:38;101840.76;;;14.13;85.07
33265;BME280;31404;53.974;-1.086;2023-05-11T18:25:34;101845.91;;;14.84;82.65
33265;BME280;31404;53.974;-1.086;2023-05-11T18:30:38;101850.68;;;14.79;83.23
33265;BME280;31404;53.974;-1.086;2023-05-11T18:35:35;101856.40;;;15.70;81.91
33265;BME280;31404;53.974;-1.086;2023-05-11T18:40:35;101862.07;;;14.26;86.48
33265;BME280;31404;53.974;-1.086;2023-05-11T18:45:39;101871.71;;;14.90;84.60
33265;BME280;31404;53.974;-1.086;2023-05-11T18:50:40;101875.84;;;14.17;85.71
33265;BME280;31404;53.974;-1.086;2023-05-11T18:55:39;101890.63;;;14.51;84.92
33265;BME280;31404;53.974;-1.086;2023-05-11T19:00:35;101897.08;;;15.65;80.57
33265;BME280;31404;53.974;-1.086;2023-05-11T19:05:38;101908.70;;;15.59;79.39
33265;BME280;31404;53.974;-1.086;2023-05-11T19:10:38;101918.23;;;15.07;82.76
33265;BME280;31404;53.974;-1.086;2023-05-11T19:15:39;101925.89;;;15.19;82.66
33265;BME280;31404;53.974;-1.086;2023-05-11T19:20:39;101933.06;;;15.60;80.46
33265;BME280;31404;53.974;-1.086;2023-05-11T19:25:39;101941.95;;;14.72;83.19
33265;BME280;31404;53.974;-1.086;2023-05-11T19:30:38;101952.29;;;15.02;82.66
33265;BME280;31404;53.974;-1.086;2023-05-11T19:35:38;101962.19;;;16.27;78.17
33265;BME280;31404;53.974;-1.086;2023-05-11T19:40:40;101967.96;;;15.79;78.66
33265;BME280;31404;53.974;-1.086;2023-05-11T19:45:39;101978.68;;;15.51;78.82
33265;BME280;31404;53.974;-1.086;2023-05-11T19:50:40;101985.16;;;14.77;81.96
33265;BME280;31404;53.974;-1.086;2023-05-11T19:55:40;101992.33;;;14.86;82.24
33265;BME280;31404;53.974;-1.086;2023-05-11T20:00:39;102002.66;;;15.58;79.64
33265;BME280;31404;53.974;-1.086;2023-05-11T20:05:42;102013.75;;;14.33;83.17
33265;BME280;31404;53.974;-1.086;2023-05-11T20:10:38;102024.32;;;15.32;79.27
33265;BME280;31404;53.974;-1.086;2023-05-11T20:15:38;102036.16;;;12.46;93.64
33265;BME280;31404;53.974;-1.086;2023-05-11T20:20:40;102041.69;;;13.06;89.92
33265;BME280;31404;53.974;-1.086;2023-05-11T20:25:38;102053.46;;;12.61;91.17
33265;BME280;31404;53.974;-1.086;2023-05-11T20:30:39;102055.77;;;11.14;99.89
33265;BME280;31404;53.974;-1.086;2023-05-11T20:35:39;102054.82;;;13.50;89.01
33265;BME280;31404;53.974;-1.086;2023-05-11T20:40:38;102068.58;;;12.38;91.27
33265;BME280;31404;53.974;-1.086;2023-05-11T20:45:38;102066.61;;;13.47;88.26
33265;BME280;31404;53.974;-1.086;2023-05-11T20:50:38;102082.30;;;12.60;92.75
33265;BME280;31404;53.974;-1.086;2023-05-11T20:55:38;102081.16;;;13.76;87.47
33265;BME280;31404;53.974;-1.086;2023-05-11T21:00:39;102095.34;;;12.48;92.20
33265;BME280;31404;53.974;-1.086;2023-05-11T21:05:38;102100.11;;;13.07;89.43
33265;BME280;31404;53.974;-1.086;2023-05-11T21:10:38;102098.49;;;14.27;86.47
33265;BME280;31404;53.974;-1.086;2023-05-11T21:15:39;102102.61;;;14.43;84.01
33265;BME280;31404;53.974;-1.086;2023-05-11T21:20:38;102104.41;;;15.30;78.78
33265;BME280;31404;53.974;-1.086;2023-05-11T21:25:39;102113.05;;;14.25;81.52
33265;BME280;31404;53.974;-1.086;2023-05-11T21:30:39;102122.83;;;13.58;83.78
33265;BME280;31404;53.974;-1.086;2023-05-11T21:35:38;102130.76;;;14.33;81.80
33265;BME280;31404;53.974;-1.086;2023-05-11T21:45:39;102137.42;;;14.72;80.33
33265;BME280;31404;53.974;-1.086;2023-05-11T21:50:38;102136.90;;;14.93;79.65
33265;BME280;31404;53.974;-1.086;2023-05-11T21:55:39;102141.34;;;14.66;79.40
33265;BME280;31404;53.974;-1.086;2023-05-11T22:00:39;102148.42;;;14.61;80.17
33265;BME280;31404;53.974;-1.086;2023-05-11T22:05:38;102152.71;;;15.48;76.70
33265;BME280;31404;53.974;-1.086;2023-05-11T22:10:38;102158.27;;;15.51;76.32
33265;BME280;31404;53.974;-1.086;2023-05-11T22:15:40;102170.33;;;15.90;74.51
33265;BME280;31404;53.974;-1.086;2023-05-11T22:20:39;102180.88;;;13.94;79.00
33265;BME280;31404;53.974;-1.086;2023-05-11T22:25:39;102185.37;;;14.68;79.01
33265;BME280;31404;53.974;-1.086;2023-05-11T22:30:42;102190.03;;;15.19;77.02
33265;BME280;31404;53.974;-1.086;2023-05-11T22:35:35;102198.61;;;15.52;75.76
33265;BME280;31404;53.974;-1.086;2023-05-11T22:40:39;102202.49;;;15.00;76.20
33265;BME280;31404;53.974;-1.086;2023-05-11T22:45:39;102209.52;;;14.98;76.90
33265;BME280;31404;53.974;-1.086;2023-05-11T22:50:40;102217.23;;;14.21;78.52
33265;BME280;31404;53.974;-1.086;2023-05-11T22:55:38;102225.26;;;13.27;83.58
33265;BME280;31404;53.974;-1.086;2023-05-11T23:00:46;102224.11;;;13.96;80.90
33265;BME280;31404;53.974;-1.086;2023-05-11T23:05:38;102230.34;;;13.94;80.21
33265;BME280;31404;53.974;-1.086;2023-05-11T23:10:39;102231.70;;;14.00;79.27
33265;BME280;31404;53.974;-1.086;2023-05-11T23:15:38;102229.72;;;14.12;79.54
33265;BME280;31404;53.974;-1.086;2023-05-11T23:20:39;102239.35;;;13.72;80.69
33265;BME280;31404;53.974;-1.086;2023-05-11T23:25:38;102240.08;;;13.75;81.02
33265;BME280;31404;53.974;-1.086;2023-05-11T23:30:39;102250.11;;;13.51;81.40
33265;BME280;31404;53.974;-1.086;2023-05-11T23:35:39;102251.59;;;12.49;84.72
33265;BME280;31404;53.974;-1.086;2023-05-11T23:40:37;102256.97;;;11.58;90.15
33265;BME280;31404;53.974;-1.086;2023-05-11T23:45:38;102260.31;;;12.39;88.32
33265;BME280;31404;53.974;-1.086;2023-05-11T23:50:37;102264.17;;;12.77;86.40
33265;BME280;31404;53.974;-1.086;2023-05-11T23:55:38;102263.00;;;12.63;86.41
